Terminal Aerodrome Forecast
Issued by NWS

Home | Current Version | Previous Version | Text Only | Print | Product List | Glossary On
Versions: 1 2 3 4 5 6 7 8 9 10 11
289
FTUS45 KFGZ 061137
TAFPRC
TAF
KPRC 061137Z 0612/0712 19005KT P6SM SKC
     FM061500 VRB05KT P6SM FEW250
     FM070200 20006KT P6SM SKC=

USA.gov is the U.S. government's official web portal to all federal, state and local government web resources and services.